sensor_id;sensor_type;location;lat;lon;timestamp;pressure;altitude;pressure_sealevel;temperature;humidity
46598;BME280;32318;48.858;8.252;2023-04-26T00:01:05;100432.22;;;8.18;88.03
46598;BME280;32318;48.858;8.252;2023-04-26T00:09:05;100423.16;;;8.11;87.70
46598;BME280;32318;48.858;8.252;2023-04-26T00:17:05;100425.41;;;8.06;88.52
46598;BME280;32318;48.858;8.252;2023-04-26T00:25:06;100426.50;;;8.03;86.72
46598;BME280;32318;48.858;8.252;2023-04-26T00:33:06;100420.25;;;7.94;87.41
46598;BME280;32318;48.858;8.252;2023-04-26T00:41:07;100418.28;;;7.87;87.43
46598;BME280;32318;48.858;8.252;2023-04-26T00:49:07;100410.34;;;7.77;87.66
46598;BME280;32318;48.858;8.252;2023-04-26T00:57:08;100418.19;;;7.68;84.44
46598;BME280;32318;48.858;8.252;2023-04-26T01:05:08;100422.25;;;7.53;87.45
46598;BME280;32318;48.858;8.252;2023-04-26T01:13:09;100425.72;;;7.34;86.44
46598;BME280;32318;48.858;8.252;2023-04-26T01:21:10;100418.44;;;7.36;86.10
46598;BME280;32318;48.858;8.252;2023-04-26T01:37:14;100413.66;;;7.20;85.65
46598;BME280;32318;48.858;8.252;2023-04-26T01:45:17;100420.66;;;7.21;86.94
46598;BME280;32318;48.858;8.252;2023-04-26T01:53:18;100426.94;;;7.20;86.24
46598;BME280;32318;48.858;8.252;2023-04-26T02:01:18;100426.25;;;7.18;87.21
46598;BME280;32318;48.858;8.252;2023-04-26T02:09:18;100422.63;;;7.19;87.85
46598;BME280;32318;48.858;8.252;2023-04-26T02:17:18;100422.91;;;7.16;88.14
46598;BME280;32318;48.858;8.252;2023-04-26T02:25:20;100433.78;;;7.13;87.59
46598;BME280;32318;48.858;8.252;2023-04-26T02:33:21;100435.75;;;7.11;87.48
46598;BME280;32318;48.858;8.252;2023-04-26T02:41:21;100438.13;;;7.04;86.44
46598;BME280;32318;48.858;8.252;2023-04-26T02:49:22;100435.56;;;7.02;86.68
46598;BME280;32318;48.858;8.252;2023-04-26T02:57:23;100431.78;;;6.95;86.60
46598;BME280;32318;48.858;8.252;2023-04-26T03:05:23;100424.22;;;6.90;86.88
46598;BME280;32318;48.858;8.252;2023-04-26T03:13:24;100421.00;;;6.77;86.12
46598;BME280;32318;48.858;8.252;2023-04-26T03:21:25;100413.97;;;6.66;86.34
46598;BME280;32318;48.858;8.252;2023-04-26T03:29:27;100411.72;;;6.62;86.33
46598;BME280;32318;48.858;8.252;2023-04-26T03:37:27;100427.47;;;6.53;85.78
46598;BME280;32318;48.858;8.252;2023-04-26T03:45:28;100418.78;;;6.41;85.87
46598;BME280;32318;48.858;8.252;2023-04-26T03:53:28;100415.66;;;6.36;85.48
46598;BME280;32318;48.858;8.252;2023-04-26T04:01:28;100414.19;;;6.22;84.37
46598;BME280;32318;48.858;8.252;2023-04-26T04:09:29;100416.34;;;6.07;84.88
46598;BME280;32318;48.858;8.252;2023-04-26T04:17:29;100415.50;;;6.07;85.40
46598;BME280;32318;48.858;8.252;2023-04-26T04:25:29;100420.94;;;6.05;84.76
46598;BME280;32318;48.858;8.252;2023-04-26T04:33:30;100422.47;;;5.87;83.47
46598;BME280;32318;48.858;8.252;2023-04-26T04:41:30;100434.59;;;5.68;83.22
46598;BME280;32318;48.858;8.252;2023-04-26T04:49:31;100439.88;;;5.47;84.74
46598;BME280;32318;48.858;8.252;2023-04-26T04:57:31;100441.38;;;5.61;85.21
46598;BME280;32318;48.858;8.252;2023-04-26T05:05:32;100456.59;;;5.47;84.44
46598;BME280;32318;48.858;8.252;2023-04-26T05:13:32;100451.66;;;5.43;84.99
46598;BME280;32318;48.858;8.252;2023-04-26T05:21:32;100457.31;;;5.49;83.87
46598;BME280;32318;48.858;8.252;2023-04-26T05:29:33;100458.16;;;5.50;82.77
46598;BME280;32318;48.858;8.252;2023-04-26T05:37:33;100468.13;;;5.58;84.11
46598;BME280;32318;48.858;8.252;2023-04-26T05:45:34;100478.63;;;5.80;82.62
46598;BME280;32318;48.858;8.252;2023-04-26T05:53:34;100477.06;;;6.10;82.51
46598;BME280;32318;48.858;8.252;2023-04-26T06:01:35;100484.38;;;6.39;81.89
46598;BME280;32318;48.858;8.252;2023-04-26T06:09:35;100496.13;;;7.18;80.15
46598;BME280;32318;48.858;8.252;2023-04-26T06:17:36;100501.50;;;7.48;80.06
46598;BME280;32318;48.858;8.252;2023-04-26T06:25:36;100496.91;;;7.79;78.81
46598;BME280;32318;48.858;8.252;2023-04-26T06:33:36;100496.78;;;7.91;78.05
46598;BME280;32318;48.858;8.252;2023-04-26T06:41:37;100494.81;;;7.83;79.14
46598;BME280;32318;48.858;8.252;2023-04-26T06:49:37;100490.63;;;7.90;78.95
46598;BME280;32318;48.858;8.252;2023-04-26T06:57:37;100492.03;;;7.94;77.33
46598;BME280;32318;48.858;8.252;2023-04-26T07:05:38;100471.88;;;7.92;78.06
46598;BME280;32318;48.858;8.252;2023-04-26T07:13:39;100468.94;;;8.05;77.36
46598;BME280;32318;48.858;8.252;2023-04-26T07:21:39;100470.63;;;8.06;77.52
46598;BME280;32318;48.858;8.252;2023-04-26T07:29:40;100464.25;;;8.26;78.00
46598;BME280;32318;48.858;8.252;2023-04-26T07:37:42;100468.97;;;8.52;77.37
46598;BME280;32318;48.858;8.252;2023-04-26T07:45:43;100470.69;;;8.81;75.30
46598;BME280;32318;48.858;8.252;2023-04-26T07:53:43;100464.88;;;8.95;74.70
46598;BME280;32318;48.858;8.252;2023-04-26T08:01:43;100466.75;;;9.13;73.76
46598;BME280;32318;48.858;8.252;2023-04-26T08:09:44;100464.34;;;9.38;71.09
46598;BME280;32318;48.858;8.252;2023-04-26T08:17:44;100459.25;;;9.63;70.92
46598;BME280;32318;48.858;8.252;2023-04-26T08:25:44;100466.78;;;9.85;68.08
46598;BME280;32318;48.858;8.252;2023-04-26T08:33:45;100466.41;;;9.98;65.72
46598;BME280;32318;48.858;8.252;2023-04-26T08:41:49;100459.50;;;10.14;67.38
46598;BME280;32318;48.858;8.252;2023-04-26T08:49:56;100443.53;;;10.40;63.97
46598;BME280;32318;48.858;8.252;2023-04-26T08:57:59;100452.59;;;10.47;64.72
46598;BME280;32318;48.858;8.252;2023-04-26T09:06:00;100441.34;;;10.70;62.57
46598;BME280;32318;48.858;8.252;2023-04-26T09:14:00;100433.91;;;10.90;60.71
46598;BME280;32318;48.858;8.252;2023-04-26T09:22:01;100441.44;;;10.95;59.22
46598;BME280;32318;48.858;8.252;2023-04-26T09:38:09;100427.22;;;11.70;56.26
46598;BME280;32318;48.858;8.252;2023-04-26T09:46:21;100419.84;;;11.64;51.59
46598;BME280;32318;48.858;8.252;2023-04-26T09:54:37;100435.25;;;11.70;52.11
46598;BME280;32318;48.858;8.252;2023-04-26T10:02:37;100420.72;;;11.98;50.87
46598;BME280;32318;48.858;8.252;2023-04-26T10:10:38;100415.50;;;12.21;50.62
46598;BME280;32318;48.858;8.252;2023-04-26T10:18:39;100403.75;;;12.38;49.01
46598;BME280;32318;48.858;8.252;2023-04-26T10:26:53;100415.25;;;12.47;48.83
46598;BME280;32318;48.858;8.252;2023-04-26T10:35:14;100402.16;;;12.61;48.01
46598;BME280;32318;48.858;8.252;2023-04-26T10:51:18;100398.25;;;12.23;48.12
46598;BME280;32318;48.858;8.252;2023-04-26T10:59:20;100388.34;;;12.32;47.26
46598;BME280;32318;48.858;8.252;2023-04-26T11:07:36;100377.56;;;12.57;46.52
46598;BME280;32318;48.858;8.252;2023-04-26T11:15:37;100352.91;;;12.70;46.35
46598;BME280;32318;48.858;8.252;2023-04-26T11:23:37;100350.13;;;13.10;46.38
46598;BME280;32318;48.858;8.252;2023-04-26T11:31:37;100337.63;;;13.02;46.26
46598;BME280;32318;48.858;8.252;2023-04-26T11:39:38;100327.41;;;13.06;44.86
46598;BME280;32318;48.858;8.252;2023-04-26T11:47:38;100329.41;;;13.27;45.86
46598;BME280;32318;48.858;8.252;2023-04-26T11:55:38;100311.31;;;13.52;45.07
46598;BME280;32318;48.858;8.252;2023-04-26T12:03:39;100317.81;;;13.73;45.15
46598;BME280;32318;48.858;8.252;2023-04-26T12:11:39;100321.03;;;13.68;45.05
46598;BME280;32318;48.858;8.252;2023-04-26T12:19:39;100317.56;;;14.12;44.68
46598;BME280;32318;48.858;8.252;2023-04-26T12:27:40;100305.94;;;14.57;43.70
46598;BME280;32318;48.858;8.252;2023-04-26T12:35:41;100298.03;;;14.70;44.31
46598;BME280;32318;48.858;8.252;2023-04-26T12:43:41;100307.31;;;14.68;44.32
46598;BME280;32318;48.858;8.252;2023-04-26T12:51:42;100315.91;;;14.78;44.84
46598;BME280;32318;48.858;8.252;2023-04-26T12:59:42;100297.53;;;14.45;43.99
46598;BME280;32318;48.858;8.252;2023-04-26T13:07:42;100300.97;;;14.39;42.81
46598;BME280;32318;48.858;8.252;2023-04-26T13:15:43;100292.03;;;14.53;42.03
46598;BME280;32318;48.858;8.252;2023-04-26T13:23:44;100298.88;;;14.93;43.92
46598;BME280;32318;48.858;8.252;2023-04-26T13:31:45;100296.88;;;15.16;42.73
46598;BME280;32318;48.858;8.252;2023-04-26T13:39:46;100295.75;;;15.32;43.48
46598;BME280;32318;48.858;8.252;2023-04-26T13:47:46;100294.28;;;14.86;43.27
46598;BME280;32318;48.858;8.252;2023-04-26T13:55:47;100292.13;;;14.97;43.36
46598;BME280;32318;48.858;8.252;2023-04-26T14:03:47;100280.03;;;15.36;43.77
46598;BME280;32318;48.858;8.252;2023-04-26T14:11:48;100285.13;;;15.24;44.24
46598;BME280;32318;48.858;8.252;2023-04-26T14:19:48;100275.47;;;15.08;42.13
46598;BME280;32318;48.858;8.252;2023-04-26T14:27:48;100289.56;;;14.88;42.09
46598;BME280;32318;48.858;8.252;2023-04-26T14:35:48;100281.78;;;15.22;40.42
46598;BME280;32318;48.858;8.252;2023-04-26T14:43:49;100274.25;;;15.11;40.87
46598;BME280;32318;48.858;8.252;2023-04-26T14:51:54;100273.81;;;14.85;41.35
46598;BME280;32318;48.858;8.252;2023-04-26T14:59:54;100255.06;;;14.55;42.61
46598;BME280;32318;48.858;8.252;2023-04-26T15:07:55;100257.47;;;14.28;43.42
46598;BME280;32318;48.858;8.252;2023-04-26T15:15:56;100250.31;;;14.21;44.48
46598;BME280;32318;48.858;8.252;2023-04-26T15:23:56;100254.22;;;14.18;43.75
46598;BME280;32318;48.858;8.252;2023-04-26T15:31:56;100242.84;;;14.16;43.72
46598;BME280;32318;48.858;8.252;2023-04-26T15:39:56;100254.00;;;14.35;43.20
46598;BME280;32318;48.858;8.252;2023-04-26T15:47:57;100239.13;;;14.54;41.29
46598;BME280;32318;48.858;8.252;2023-04-26T15:55:57;100247.34;;;14.31;43.03
46598;BME280;32318;48.858;8.252;2023-04-26T16:03:57;100245.16;;;14.04;43.25
46598;BME280;32318;48.858;8.252;2023-04-26T16:11:58;100238.34;;;13.87;43.49
46598;BME280;32318;48.858;8.252;2023-04-26T16:20:03;100239.34;;;13.71;43.63
46598;BME280;32318;48.858;8.252;2023-04-26T16:28:04;100238.25;;;13.65;44.60
46598;BME280;32318;48.858;8.252;2023-04-26T16:36:05;100236.56;;;13.79;44.39
46598;BME280;32318;48.858;8.252;2023-04-26T16:44:06;100233.16;;;13.85;44.25
46598;BME280;32318;48.858;8.252;2023-04-26T16:52:06;100229.56;;;13.78;44.03
46598;BME280;32318;48.858;8.252;2023-04-26T17:00:07;100227.88;;;13.77;44.33
46598;BME280;32318;48.858;8.252;2023-04-26T17:08:10;100232.50;;;13.68;44.97
46598;BME280;32318;48.858;8.252;2023-04-26T17:16:10;100233.91;;;13.64;44.76
46598;BME280;32318;48.858;8.252;2023-04-26T17:24:11;100238.34;;;13.57;45.53
46598;BME280;32318;48.858;8.252;2023-04-26T17:32:11;100239.59;;;13.46;46.46
46598;BME280;32318;48.858;8.252;2023-04-26T17:40:12;100245.22;;;13.36;46.51
46598;BME280;32318;48.858;8.252;2023-04-26T17:48:12;100253.81;;;13.31;46.79
46598;BME280;32318;48.858;8.252;2023-04-26T17:56:12;100261.59;;;13.18;47.05
46598;BME280;32318;48.858;8.252;2023-04-26T18:04:12;100269.03;;;13.16;48.30
46598;BME280;32318;48.858;8.252;2023-04-26T18:12:13;100271.03;;;13.14;48.92
46598;BME280;32318;48.858;8.252;2023-04-26T18:20:13;100273.06;;;13.12;49.79
46598;BME280;32318;48.858;8.252;2023-04-26T18:28:13;100278.00;;;13.00;50.93
46598;BME280;32318;48.858;8.252;2023-04-26T18:36:14;100287.78;;;12.93;51.92
46598;BME280;32318;48.858;8.252;2023-04-26T18:44:15;100286.38;;;12.82;52.63
46598;BME280;32318;48.858;8.252;2023-04-26T18:52:16;100295.81;;;12.69;54.41
46598;BME280;32318;48.858;8.252;2023-04-26T19:00:16;100309.59;;;12.58;54.91
46598;BME280;32318;48.858;8.252;2023-04-26T19:08:17;100312.38;;;12.33;55.05
46598;BME280;32318;48.858;8.252;2023-04-26T19:16:18;100337.19;;;12.27;56.23
46598;BME280;32318;48.858;8.252;2023-04-26T19:24:18;100340.19;;;12.24;57.06
46598;BME280;32318;48.858;8.252;2023-04-26T19:32:18;100339.88;;;12.19;56.81
46598;BME280;32318;48.858;8.252;2023-04-26T19:40:21;100347.97;;;12.02;57.19
46598;BME280;32318;48.858;8.252;2023-04-26T19:48:22;100347.09;;;11.93;57.49
46598;BME280;32318;48.858;8.252;2023-04-26T19:56:22;100345.44;;;11.84;58.19
46598;BME280;32318;48.858;8.252;2023-04-26T20:04:23;100358.34;;;11.72;58.56
46598;BME280;32318;48.858;8.252;2023-04-26T20:12:23;100364.03;;;11.69;58.67
46598;BME280;32318;48.858;8.252;2023-04-26T20:20:23;100373.56;;;11.39;57.87
46598;BME280;32318;48.858;8.252;2023-04-26T20:28:24;100368.03;;;11.16;60.56
46598;BME280;32318;48.858;8.252;2023-04-26T20:36:25;100361.19;;;11.21;60.86
46598;BME280;32318;48.858;8.252;2023-04-26T20:44:26;100361.69;;;11.25;59.63
46598;BME280;32318;48.858;8.252;2023-04-26T20:52:26;100348.47;;;11.23;61.07
46598;BME280;32318;48.858;8.252;2023-04-26T21:00:26;100352.19;;;11.22;61.03
46598;BME280;32318;48.858;8.252;2023-04-26T21:08:27;100358.84;;;11.18;61.34
46598;BME280;32318;48.858;8.252;2023-04-26T21:16:27;100356.47;;;11.15;61.32
46598;BME280;32318;48.858;8.252;2023-04-26T21:24:27;100354.97;;;11.04;61.40
46598;BME280;32318;48.858;8.252;2023-04-26T21:32:28;100368.00;;;10.99;62.06
46598;BME280;32318;48.858;8.252;2023-04-26T21:40:28;100379.31;;;10.93;62.55
46598;BME280;32318;48.858;8.252;2023-04-26T21:48:28;100372.66;;;10.89;61.02
46598;BME280;32318;48.858;8.252;2023-04-26T21:56:29;100375.59;;;10.77;62.40
46598;BME280;32318;48.858;8.252;2023-04-26T22:04:29;100375.09;;;10.74;62.87
46598;BME280;32318;48.858;8.252;2023-04-26T22:12:30;100384.97;;;10.73;62.97
46598;BME280;32318;48.858;8.252;2023-04-26T22:20:30;100394.78;;;10.73;62.64
46598;BME280;32318;48.858;8.252;2023-04-26T22:28:30;100380.78;;;10.71;62.39
46598;BME280;32318;48.858;8.252;2023-04-26T22:36:31;100374.38;;;10.63;62.84
46598;BME280;32318;48.858;8.252;2023-04-26T22:44:31;100382.22;;;10.57;63.59
46598;BME280;32318;48.858;8.252;2023-04-26T22:52:32;100387.53;;;10.48;63.26
46598;BME280;32318;48.858;8.252;2023-04-26T23:00:32;100383.66;;;10.43;63.22
46598;BME280;32318;48.858;8.252;2023-04-26T23:08:32;100381.13;;;10.41;62.86
46598;BME280;32318;48.858;8.252;2023-04-26T23:16:33;100384.41;;;10.35;62.71
46598;BME280;32318;48.858;8.252;2023-04-26T23:24:33;100398.06;;;10.32;62.84
46598;BME280;32318;48.858;8.252;2023-04-26T23:32:33;100389.41;;;10.30;62.84
46598;BME280;32318;48.858;8.252;2023-04-26T23:40:34;100386.06;;;10.28;63.13
46598;BME280;32318;48.858;8.252;2023-04-26T23:48:36;100386.34;;;10.25;63.34
46598;BME280;32318;48.858;8.252;2023-04-26T23:56:36;100386.34;;;10.25;63.64
